sensor_id;sensor_type;location;lat;lon;timestamp;P1;durP1;ratioP1;P2;durP2;ratioP2
54795;SDS011;40693;43.884;20.340;2022-09-09T00:13:16;25.10;;;12.98;;
54795;SDS011;40693;43.884;20.340;2022-09-09T00:18:50;19.42;;;12.38;;
54795;SDS011;40693;43.884;20.340;2022-09-09T00:21:20;18.35;;;12.77;;
54795;SDS011;40693;43.884;20.340;2022-09-09T00:23:58;17.08;;;12.48;;
54795;SDS011;40693;43.884;20.340;2022-09-09T00:31:37;13.25;;;11.73;;
54795;SDS011;40693;43.884;20.340;2022-09-09T00:34:15;22.08;;;14.68;;
54795;SDS011;40693;43.884;20.340;2022-09-09T00:36:48;18.85;;;13.00;;
54795;SDS011;40693;43.884;20.340;2022-09-09T00:39:36;24.70;;;13.18;;
54795;SDS011;40693;43.884;20.340;2022-09-09T00:42:16;20.75;;;13.82;;
54795;SDS011;40693;43.884;20.340;2022-09-09T00:55:47;19.55;;;11.35;;
54795;SDS011;40693;43.884;20.340;2022-09-09T00:58:34;18.58;;;11.32;;
54795;SDS011;40693;43.884;20.340;2022-09-09T01:01:10;19.55;;;11.05;;
54795;SDS011;40693;43.884;20.340;2022-09-09T01:03:43;22.50;;;10.35;;
54795;SDS011;40693;43.884;20.340;2022-09-09T01:09:11;16.33;;;10.55;;
54795;SDS011;40693;43.884;20.340;2022-09-09T01:11:47;16.48;;;10.93;;
54795;SDS011;40693;43.884;20.340;2022-09-09T01:14:35;19.77;;;10.15;;
54795;SDS011;40693;43.884;20.340;2022-09-09T01:17:31;18.35;;;10.32;;
54795;SDS011;40693;43.884;20.340;2022-09-09T01:28:26;17.38;;;11.60;;
54795;SDS011;40693;43.884;20.340;2022-09-09T01:30:53;13.75;;;9.60;;
54795;SDS011;40693;43.884;20.340;2022-09-09T01:33:21;15.93;;;10.95;;
54795;SDS011;40693;43.884;20.340;2022-09-09T01:35:52;18.27;;;10.88;;
54795;SDS011;40693;43.884;20.340;2022-09-09T01:38:34;14.77;;;10.88;;
54795;SDS011;40693;43.884;20.340;2022-09-09T01:41:01;14.25;;;10.10;;
54795;SDS011;40693;43.884;20.340;2022-09-09T01:43:28;17.27;;;10.50;;
54795;SDS011;40693;43.884;20.340;2022-09-09T01:45:55;21.45;;;11.77;;
54795;SDS011;40693;43.884;20.340;2022-09-09T01:48:24;15.55;;;10.63;;
54795;SDS011;40693;43.884;20.340;2022-09-09T01:50:50;16.90;;;10.48;;
54795;SDS011;40693;43.884;20.340;2022-09-09T01:53:17;17.65;;;10.55;;
54795;SDS011;40693;43.884;20.340;2022-09-09T01:55:51;15.75;;;10.00;;
54795;SDS011;40693;43.884;20.340;2022-09-09T02:01:17;25.60;;;11.15;;
54795;SDS011;40693;43.884;20.340;2022-09-09T02:03:53;12.07;;;9.90;;
54795;SDS011;40693;43.884;20.340;2022-09-09T02:06:27;15.90;;;10.25;;
54795;SDS011;40693;43.884;20.340;2022-09-09T02:09:04;29.77;;;10.98;;
54795;SDS011;40693;43.884;20.340;2022-09-09T02:11:31;24.05;;;10.02;;
54795;SDS011;40693;43.884;20.340;2022-09-09T02:14:17;20.17;;;9.65;;
54795;SDS011;40693;43.884;20.340;2022-09-09T02:16:59;19.08;;;10.60;;
54795;SDS011;40693;43.884;20.340;2022-09-09T02:19:32;18.90;;;10.63;;
54795;SDS011;40693;43.884;20.340;2022-09-09T02:22:01;16.33;;;11.75;;
54795;SDS011;40693;43.884;20.340;2022-09-09T02:24:29;24.55;;;11.25;;
54795;SDS011;40693;43.884;20.340;2022-09-09T02:26:58;21.38;;;11.98;;
54795;SDS011;40693;43.884;20.340;2022-09-09T02:29:29;19.15;;;11.00;;
54795;SDS011;40693;43.884;20.340;2022-09-09T02:31:59;19.35;;;10.23;;
54795;SDS011;40693;43.884;20.340;2022-09-09T02:34:28;18.35;;;10.98;;
54795;SDS011;40693;43.884;20.340;2022-09-09T02:36:56;23.35;;;9.93;;
54795;SDS011;40693;43.884;20.340;2022-09-09T02:39:25;17.35;;;10.98;;
54795;SDS011;40693;43.884;20.340;2022-09-09T02:41:51;19.98;;;11.30;;
54795;SDS011;40693;43.884;20.340;2022-09-09T02:44:17;17.13;;;11.07;;
54795;SDS011;40693;43.884;20.340;2022-09-09T02:47:45;20.20;;;11.13;;
54795;SDS011;40693;43.884;20.340;2022-09-09T02:52:06;25.45;;;10.25;;
54795;SDS011;40693;43.884;20.340;2022-09-09T02:54:39;13.65;;;10.25;;
54795;SDS011;40693;43.884;20.340;2022-09-09T03:00:03;23.92;;;11.50;;
54795;SDS011;40693;43.884;20.340;2022-09-09T03:02:29;17.88;;;11.13;;
54795;SDS011;40693;43.884;20.340;2022-09-09T03:04:55;19.42;;;10.30;;
54795;SDS011;40693;43.884;20.340;2022-09-09T03:07:21;20.02;;;11.75;;
54795;SDS011;40693;43.884;20.340;2022-09-09T03:09:47;18.30;;;10.82;;
54795;SDS011;40693;43.884;20.340;2022-09-09T03:12:13;19.85;;;9.60;;
54795;SDS011;40693;43.884;20.340;2022-09-09T03:14:39;22.48;;;10.60;;
54795;SDS011;40693;43.884;20.340;2022-09-09T03:17:05;14.20;;;8.77;;
54795;SDS011;40693;43.884;20.340;2022-09-09T03:19:31;17.90;;;9.32;;
54795;SDS011;40693;43.884;20.340;2022-09-09T03:21:57;15.82;;;9.88;;
54795;SDS011;40693;43.884;20.340;2022-09-09T03:24:23;16.83;;;9.07;;
54795;SDS011;40693;43.884;20.340;2022-09-09T03:26:50;18.80;;;10.18;;
54795;SDS011;40693;43.884;20.340;2022-09-09T03:29:16;19.88;;;10.57;;
54795;SDS011;40693;43.884;20.340;2022-09-09T03:31:43;18.33;;;10.73;;
54795;SDS011;40693;43.884;20.340;2022-09-09T03:34:09;16.10;;;10.50;;
54795;SDS011;40693;43.884;20.340;2022-09-09T03:36:36;22.35;;;10.65;;
54795;SDS011;40693;43.884;20.340;2022-09-09T03:39:02;16.30;;;10.52;;
54795;SDS011;40693;43.884;20.340;2022-09-09T03:41:28;15.10;;;9.50;;
54795;SDS011;40693;43.884;20.340;2022-09-09T03:43:55;17.55;;;10.52;;
54795;SDS011;40693;43.884;20.340;2022-09-09T03:46:22;16.70;;;10.95;;
54795;SDS011;40693;43.884;20.340;2022-09-09T03:48:49;17.00;;;10.70;;
54795;SDS011;40693;43.884;20.340;2022-09-09T03:51:17;20.30;;;10.85;;
54795;SDS011;40693;43.884;20.340;2022-09-09T03:53:43;23.85;;;10.43;;
54795;SDS011;40693;43.884;20.340;2022-09-09T03:56:09;17.08;;;9.73;;
54795;SDS011;40693;43.884;20.340;2022-09-09T03:58:36;17.95;;;10.20;;
54795;SDS011;40693;43.884;20.340;2022-09-09T04:01:03;19.60;;;11.05;;
54795;SDS011;40693;43.884;20.340;2022-09-09T04:03:30;22.77;;;10.02;;
54795;SDS011;40693;43.884;20.340;2022-09-09T04:05:56;20.30;;;10.25;;
54795;SDS011;40693;43.884;20.340;2022-09-09T04:08:24;17.52;;;10.93;;
54795;SDS011;40693;43.884;20.340;2022-09-09T04:10:51;17.05;;;11.40;;
54795;SDS011;40693;43.884;20.340;2022-09-09T04:13:17;17.60;;;10.82;;
54795;SDS011;40693;43.884;20.340;2022-09-09T04:15:49;16.25;;;10.10;;
54795;SDS011;40693;43.884;20.340;2022-09-09T04:18:17;20.13;;;10.05;;
54795;SDS011;40693;43.884;20.340;2022-09-09T04:20:45;17.52;;;11.18;;
54795;SDS011;40693;43.884;20.340;2022-09-09T04:23:15;14.88;;;9.65;;
54795;SDS011;40693;43.884;20.340;2022-09-09T04:25:44;13.80;;;10.00;;
54795;SDS011;40693;43.884;20.340;2022-09-09T04:28:11;16.50;;;10.02;;
54795;SDS011;40693;43.884;20.340;2022-09-09T04:30:38;15.00;;;9.63;;
54795;SDS011;40693;43.884;20.340;2022-09-09T04:33:05;17.08;;;9.70;;
54795;SDS011;40693;43.884;20.340;2022-09-09T04:35:31;18.02;;;10.00;;
54795;SDS011;40693;43.884;20.340;2022-09-09T04:37:58;15.63;;;8.75;;
54795;SDS011;40693;43.884;20.340;2022-09-09T04:40:24;20.80;;;11.23;;
54795;SDS011;40693;43.884;20.340;2022-09-09T04:42:50;16.63;;;9.85;;
54795;SDS011;40693;43.884;20.340;2022-09-09T04:45:16;18.77;;;10.45;;
54795;SDS011;40693;43.884;20.340;2022-09-09T04:47:43;15.35;;;8.82;;
54795;SDS011;40693;43.884;20.340;2022-09-09T04:50:09;18.05;;;11.00;;
54795;SDS011;40693;43.884;20.340;2022-09-09T04:52:35;11.93;;;9.23;;
54795;SDS011;40693;43.884;20.340;2022-09-09T04:55:01;14.70;;;10.27;;
54795;SDS011;40693;43.884;20.340;2022-09-09T04:57:27;13.55;;;9.65;;
54795;SDS011;40693;43.884;20.340;2022-09-09T04:59:53;16.35;;;11.02;;
54795;SDS011;40693;43.884;20.340;2022-09-09T05:02:19;14.05;;;10.55;;
54795;SDS011;40693;43.884;20.340;2022-09-09T05:04:45;18.58;;;10.80;;
54795;SDS011;40693;43.884;20.340;2022-09-09T05:07:11;15.93;;;11.98;;
54795;SDS011;40693;43.884;20.340;2022-09-09T05:09:37;18.13;;;10.55;;
54795;SDS011;40693;43.884;20.340;2022-09-09T05:12:02;14.65;;;10.27;;
54795;SDS011;40693;43.884;20.340;2022-09-09T05:14:29;17.73;;;10.07;;
54795;SDS011;40693;43.884;20.340;2022-09-09T05:16:55;15.65;;;10.27;;
54795;SDS011;40693;43.884;20.340;2022-09-09T05:19:21;21.75;;;11.90;;
54795;SDS011;40693;43.884;20.340;2022-09-09T05:21:47;17.52;;;11.43;;
54795;SDS011;40693;43.884;20.340;2022-09-09T05:24:13;15.55;;;10.18;;
54795;SDS011;40693;43.884;20.340;2022-09-09T05:26:39;15.07;;;9.40;;
54795;SDS011;40693;43.884;20.340;2022-09-09T05:29:05;14.80;;;9.57;;
54795;SDS011;40693;43.884;20.340;2022-09-09T05:31:31;17.73;;;10.57;;
54795;SDS011;40693;43.884;20.340;2022-09-09T05:33:57;15.60;;;9.13;;
54795;SDS011;40693;43.884;20.340;2022-09-09T05:36:24;15.35;;;10.20;;
54795;SDS011;40693;43.884;20.340;2022-09-09T05:38:50;14.73;;;9.52;;
54795;SDS011;40693;43.884;20.340;2022-09-09T05:41:18;15.90;;;9.82;;
54795;SDS011;40693;43.884;20.340;2022-09-09T05:43:45;14.10;;;8.98;;
54795;SDS011;40693;43.884;20.340;2022-09-09T05:46:16;15.75;;;9.55;;
54795;SDS011;40693;43.884;20.340;2022-09-09T05:48:45;16.13;;;9.70;;
54795;SDS011;40693;43.884;20.340;2022-09-09T05:51:13;14.45;;;8.77;;
54795;SDS011;40693;43.884;20.340;2022-09-09T05:53:41;15.63;;;10.02;;
54795;SDS011;40693;43.884;20.340;2022-09-09T05:56:09;17.02;;;9.00;;
54795;SDS011;40693;43.884;20.340;2022-09-09T05:58:39;13.15;;;10.57;;
54795;SDS011;40693;43.884;20.340;2022-09-09T06:03:33;13.07;;;10.20;;
54795;SDS011;40693;43.884;20.340;2022-09-09T06:06:01;15.43;;;10.15;;
54795;SDS011;40693;43.884;20.340;2022-09-09T06:08:32;16.30;;;9.98;;
54795;SDS011;40693;43.884;20.340;2022-09-09T06:13:35;14.05;;;10.25;;
54795;SDS011;40693;43.884;20.340;2022-09-09T06:16:04;13.80;;;10.90;;
54795;SDS011;40693;43.884;20.340;2022-09-09T06:18:37;14.85;;;11.50;;
54795;SDS011;40693;43.884;20.340;2022-09-09T06:21:04;20.05;;;11.43;;
54795;SDS011;40693;43.884;20.340;2022-09-09T06:23:32;19.10;;;12.68;;
54795;SDS011;40693;43.884;20.340;2022-09-09T06:26:10;19.40;;;12.32;;
54795;SDS011;40693;43.884;20.340;2022-09-09T06:28:42;22.20;;;14.30;;
54795;SDS011;40693;43.884;20.340;2022-09-09T06:31:11;17.85;;;12.75;;
54795;SDS011;40693;43.884;20.340;2022-09-09T06:33:41;23.27;;;13.43;;
54795;SDS011;40693;43.884;20.340;2022-09-09T06:36:12;17.10;;;12.80;;
54795;SDS011;40693;43.884;20.340;2022-09-09T06:38:40;20.02;;;11.65;;
54795;SDS011;40693;43.884;20.340;2022-09-09T06:41:07;16.85;;;11.50;;
54795;SDS011;40693;43.884;20.340;2022-09-09T06:43:34;20.42;;;11.40;;
54795;SDS011;40693;43.884;20.340;2022-09-09T06:46:05;20.95;;;11.18;;
54795;SDS011;40693;43.884;20.340;2022-09-09T06:48:33;16.77;;;10.45;;
54795;SDS011;40693;43.884;20.340;2022-09-09T06:51:03;16.60;;;11.52;;
54795;SDS011;40693;43.884;20.340;2022-09-09T06:53:33;17.90;;;11.95;;
54795;SDS011;40693;43.884;20.340;2022-09-09T06:56:19;22.20;;;11.02;;
54795;SDS011;40693;43.884;20.340;2022-09-09T06:58:48;18.77;;;11.60;;
54795;SDS011;40693;43.884;20.340;2022-09-09T07:01:17;16.02;;;11.45;;
54795;SDS011;40693;43.884;20.340;2022-09-09T07:03:45;16.50;;;10.90;;
54795;SDS011;40693;43.884;20.340;2022-09-09T07:06:23;16.15;;;12.18;;
54795;SDS011;40693;43.884;20.340;2022-09-09T07:08:54;17.00;;;11.50;;
54795;SDS011;40693;43.884;20.340;2022-09-09T07:11:22;63.35;;;18.80;;
54795;SDS011;40693;43.884;20.340;2022-09-09T07:13:50;17.83;;;12.50;;
54795;SDS011;40693;43.884;20.340;2022-09-09T07:16:17;24.38;;;13.35;;
54795;SDS011;40693;43.884;20.340;2022-09-09T07:18:44;17.10;;;12.57;;
54795;SDS011;40693;43.884;20.340;2022-09-09T07:21:10;20.50;;;13.20;;
54795;SDS011;40693;43.884;20.340;2022-09-09T07:23:38;17.40;;;12.38;;
54795;SDS011;40693;43.884;20.340;2022-09-09T07:26:09;39.75;;;16.15;;
54795;SDS011;40693;43.884;20.340;2022-09-09T07:28:40;31.20;;;17.27;;
54795;SDS011;40693;43.884;20.340;2022-09-09T07:31:17;32.78;;;15.32;;
54795;SDS011;40693;43.884;20.340;2022-09-09T07:33:45;19.08;;;14.43;;
54795;SDS011;40693;43.884;20.340;2022-09-09T07:36:14;20.35;;;14.30;;
54795;SDS011;40693;43.884;20.340;2022-09-09T07:38:46;23.58;;;13.75;;
54795;SDS011;40693;43.884;20.340;2022-09-09T07:41:21;21.65;;;13.38;;
54795;SDS011;40693;43.884;20.340;2022-09-09T07:43:49;20.13;;;14.90;;
54795;SDS011;40693;43.884;20.340;2022-09-09T07:46:17;22.35;;;15.23;;
54795;SDS011;40693;43.884;20.340;2022-09-09T07:48:45;24.50;;;14.70;;
54795;SDS011;40693;43.884;20.340;2022-09-09T07:51:17;20.27;;;13.70;;
54795;SDS011;40693;43.884;20.340;2022-09-09T07:53:47;19.50;;;14.93;;
54795;SDS011;40693;43.884;20.340;2022-09-09T07:56:16;24.08;;;15.40;;
54795;SDS011;40693;43.884;20.340;2022-09-09T07:58:45;20.73;;;13.88;;
54795;SDS011;40693;43.884;20.340;2022-09-09T08:01:13;20.40;;;14.00;;
54795;SDS011;40693;43.884;20.340;2022-09-09T08:03:44;17.88;;;12.65;;
54795;SDS011;40693;43.884;20.340;2022-09-09T08:06:10;14.63;;;10.32;;
54795;SDS011;40693;43.884;20.340;2022-09-09T08:08:38;15.98;;;9.95;;
54795;SDS011;40693;43.884;20.340;2022-09-09T08:11:11;16.20;;;9.65;;
54795;SDS011;40693;43.884;20.340;2022-09-09T08:13:39;14.07;;;10.35;;
54795;SDS011;40693;43.884;20.340;2022-09-09T08:18:33;18.35;;;11.68;;
54795;SDS011;40693;43.884;20.340;2022-09-09T08:21:13;13.77;;;9.65;;
54795;SDS011;40693;43.884;20.340;2022-09-09T08:23:42;12.45;;;8.70;;
54795;SDS011;40693;43.884;20.340;2022-09-09T08:26:11;15.23;;;9.35;;
54795;SDS011;40693;43.884;20.340;2022-09-09T08:28:40;15.05;;;9.45;;
54795;SDS011;40693;43.884;20.340;2022-09-09T08:31:11;14.27;;;9.80;;
54795;SDS011;40693;43.884;20.340;2022-09-09T08:33:37;18.88;;;9.00;;
54795;SDS011;40693;43.884;20.340;2022-09-09T08:36:04;17.83;;;9.10;;
54795;SDS011;40693;43.884;20.340;2022-09-09T08:38:31;14.75;;;8.52;;
54795;SDS011;40693;43.884;20.340;2022-09-09T08:40:58;12.98;;;9.32;;
54795;SDS011;40693;43.884;20.340;2022-09-09T08:43:41;14.48;;;9.32;;
54795;SDS011;40693;43.884;20.340;2022-09-09T08:46:14;14.20;;;7.75;;
54795;SDS011;40693;43.884;20.340;2022-09-09T08:48:55;10.52;;;7.53;;
54795;SDS011;40693;43.884;20.340;2022-09-09T08:51:25;16.52;;;7.57;;
54795;SDS011;40693;43.884;20.340;2022-09-09T08:53:55;15.52;;;7.18;;
54795;SDS011;40693;43.884;20.340;2022-09-09T08:56:25;8.45;;;6.50;;
54795;SDS011;40693;43.884;20.340;2022-09-09T08:58:53;13.13;;;9.18;;
54795;SDS011;40693;43.884;20.340;2022-09-09T09:12:59;10.05;;;8.00;;
54795;SDS011;40693;43.884;20.340;2022-09-09T09:15:27;11.77;;;7.78;;
54795;SDS011;40693;43.884;20.340;2022-09-09T09:17:59;10.80;;;7.50;;
54795;SDS011;40693;43.884;20.340;2022-09-09T09:23:26;12.32;;;8.20;;
54795;SDS011;40693;43.884;20.340;2022-09-09T09:26:05;12.68;;;6.63;;
54795;SDS011;40693;43.884;20.340;2022-09-09T09:28:34;10.13;;;7.13;;
54795;SDS011;40693;43.884;20.340;2022-09-09T09:33:44;10.88;;;7.70;;
54795;SDS011;40693;43.884;20.340;2022-09-09T09:36:11;11.60;;;7.25;;
54795;SDS011;40693;43.884;20.340;2022-09-09T09:38:40;10.32;;;6.85;;
54795;SDS011;40693;43.884;20.340;2022-09-09T09:41:43;11.52;;;6.95;;
54795;SDS011;40693;43.884;20.340;2022-09-09T09:44:27;11.57;;;7.13;;
54795;SDS011;40693;43.884;20.340;2022-09-09T09:47:07;12.02;;;7.05;;
54795;SDS011;40693;43.884;20.340;2022-09-09T09:49:37;12.98;;;7.75;;
54795;SDS011;40693;43.884;20.340;2022-09-09T09:52:05;16.98;;;7.88;;
54795;SDS011;40693;43.884;20.340;2022-09-09T09:54:33;12.65;;;7.25;;
54795;SDS011;40693;43.884;20.340;2022-09-09T09:57:07;13.85;;;7.63;;
54795;SDS011;40693;43.884;20.340;2022-09-09T09:59:38;10.52;;;6.45;;
54795;SDS011;40693;43.884;20.340;2022-09-09T10:04:46;9.05;;;6.13;;
54795;SDS011;40693;43.884;20.340;2022-09-09T10:07:19;8.35;;;6.50;;
54795;SDS011;40693;43.884;20.340;2022-09-09T10:09:47;11.60;;;7.05;;
54795;SDS011;40693;43.884;20.340;2022-09-09T10:18:05;13.70;;;7.68;;
54795;SDS011;40693;43.884;20.340;2022-09-09T10:20:48;9.27;;;6.03;;
54795;SDS011;40693;43.884;20.340;2022-09-09T10:23:33;11.23;;;6.43;;
54795;SDS011;40693;43.884;20.340;2022-09-09T10:26:15;10.15;;;5.80;;
54795;SDS011;40693;43.884;20.340;2022-09-09T10:42:51;12.38;;;6.38;;
54795;SDS011;40693;43.884;20.340;2022-09-09T10:45:41;7.53;;;5.38;;
54795;SDS011;40693;43.884;20.340;2022-09-09T10:48:26;8.05;;;5.30;;
54795;SDS011;40693;43.884;20.340;2022-09-09T10:56:36;10.88;;;6.05;;
54795;SDS011;40693;43.884;20.340;2022-09-09T10:59:12;7.28;;;5.90;;
54795;SDS011;40693;43.884;20.340;2022-09-09T11:01:44;7.47;;;5.30;;
54795;SDS011;40693;43.884;20.340;2022-09-09T11:04:21;14.02;;;6.28;;
54795;SDS011;40693;43.884;20.340;2022-09-09T11:06:56;9.70;;;5.60;;
54795;SDS011;40693;43.884;20.340;2022-09-09T11:09:26;12.07;;;5.85;;
54795;SDS011;40693;43.884;20.340;2022-09-09T11:11:56;12.38;;;6.30;;
54795;SDS011;40693;43.884;20.340;2022-09-09T11:14:47;9.02;;;6.07;;
54795;SDS011;40693;43.884;20.340;2022-09-09T11:19:42;9.65;;;5.15;;
54795;SDS011;40693;43.884;20.340;2022-09-09T11:24:59;10.20;;;5.80;;
54795;SDS011;40693;43.884;20.340;2022-09-09T11:27:54;9.60;;;6.32;;
54795;SDS011;40693;43.884;20.340;2022-09-09T11:30:47;8.50;;;5.00;;
54795;SDS011;40693;43.884;20.340;2022-09-09T11:38:52;10.10;;;4.63;;
54795;SDS011;40693;43.884;20.340;2022-09-09T11:41:32;10.80;;;5.35;;
54795;SDS011;40693;43.884;20.340;2022-09-09T11:43:59;10.27;;;5.40;;
54795;SDS011;40693;43.884;20.340;2022-09-09T11:46:36;9.70;;;5.10;;
54795;SDS011;40693;43.884;20.340;2022-09-09T11:49:05;10.02;;;5.57;;
54795;SDS011;40693;43.884;20.340;2022-09-09T11:51:32;7.78;;;4.32;;
54795;SDS011;40693;43.884;20.340;2022-09-09T11:54:01;9.15;;;4.53;;
54795;SDS011;40693;43.884;20.340;2022-09-09T11:56:47;9.77;;;3.85;;
54795;SDS011;40693;43.884;20.340;2022-09-09T11:59:21;7.60;;;5.03;;
54795;SDS011;40693;43.884;20.340;2022-09-09T12:07:52;8.15;;;5.20;;
54795;SDS011;40693;43.884;20.340;2022-09-09T12:10:26;7.72;;;4.20;;
54795;SDS011;40693;43.884;20.340;2022-09-09T12:12:54;9.35;;;5.40;;
54795;SDS011;40693;43.884;20.340;2022-09-09T12:15:28;8.60;;;4.72;;
54795;SDS011;40693;43.884;20.340;2022-09-09T12:17:55;10.57;;;4.55;;
54795;SDS011;40693;43.884;20.340;2022-09-09T12:20:23;7.72;;;4.82;;
54795;SDS011;40693;43.884;20.340;2022-09-09T12:34:02;8.88;;;4.55;;
54795;SDS011;40693;43.884;20.340;2022-09-09T12:36:36;9.10;;;4.75;;
54795;SDS011;40693;43.884;20.340;2022-09-09T12:39:15;7.00;;;4.25;;
54795;SDS011;40693;43.884;20.340;2022-09-09T12:41:51;7.15;;;4.07;;
54795;SDS011;40693;43.884;20.340;2022-09-09T12:44:22;11.18;;;5.05;;
54795;SDS011;40693;43.884;20.340;2022-09-09T12:46:50;8.90;;;5.05;;
54795;SDS011;40693;43.884;20.340;2022-09-09T12:49:34;7.50;;;5.38;;
54795;SDS011;40693;43.884;20.340;2022-09-09T12:55:02;5.28;;;3.63;;
54795;SDS011;40693;43.884;20.340;2022-09-09T12:57:33;7.05;;;4.80;;
54795;SDS011;40693;43.884;20.340;2022-09-09T13:00:04;7.53;;;4.35;;
54795;SDS011;40693;43.884;20.340;2022-09-09T13:02:33;9.13;;;4.65;;
54795;SDS011;40693;43.884;20.340;2022-09-09T13:05:15;7.40;;;4.35;;
54795;SDS011;40693;43.884;20.340;2022-09-09T13:07:43;6.55;;;3.55;;
54795;SDS011;40693;43.884;20.340;2022-09-09T13:10:12;8.02;;;4.15;;
54795;SDS011;40693;43.884;20.340;2022-09-09T13:12:39;6.07;;;3.97;;
54795;SDS011;40693;43.884;20.340;2022-09-09T13:15:12;9.40;;;4.28;;
54795;SDS011;40693;43.884;20.340;2022-09-09T13:17:51;7.15;;;4.93;;
54795;SDS011;40693;43.884;20.340;2022-09-09T13:20:20;8.88;;;4.32;;
54795;SDS011;40693;43.884;20.340;2022-09-09T13:22:47;9.07;;;3.83;;
54795;SDS011;40693;43.884;20.340;2022-09-09T13:27:53;8.80;;;4.22;;
54795;SDS011;40693;43.884;20.340;2022-09-09T13:33:04;7.63;;;4.00;;
54795;SDS011;40693;43.884;20.340;2022-09-09T13:35:47;11.25;;;4.35;;
54795;SDS011;40693;43.884;20.340;2022-09-09T13:38:14;7.00;;;4.20;;
54795;SDS011;40693;43.884;20.340;2022-09-09T13:40:40;6.22;;;3.65;;
54795;SDS011;40693;43.884;20.340;2022-09-09T13:43:24;7.68;;;4.35;;
54795;SDS011;40693;43.884;20.340;2022-09-09T13:45:59;7.95;;;3.50;;
54795;SDS011;40693;43.884;20.340;2022-09-09T13:48:26;7.13;;;3.78;;
54795;SDS011;40693;43.884;20.340;2022-09-09T13:51:00;11.05;;;4.65;;
54795;SDS011;40693;43.884;20.340;2022-09-09T13:53:30;10.05;;;3.78;;
54795;SDS011;40693;43.884;20.340;2022-09-09T13:55:56;8.32;;;4.28;;
54795;SDS011;40693;43.884;20.340;2022-09-09T13:58:23;6.28;;;4.50;;
54795;SDS011;40693;43.884;20.340;2022-09-09T14:00:50;8.50;;;4.47;;
54795;SDS011;40693;43.884;20.340;2022-09-09T14:03:16;8.70;;;4.82;;
54795;SDS011;40693;43.884;20.340;2022-09-09T14:05:43;7.72;;;4.00;;
54795;SDS011;40693;43.884;20.340;2022-09-09T14:08:11;10.35;;;4.10;;
54795;SDS011;40693;43.884;20.340;2022-09-09T14:10:50;9.30;;;3.83;;
54795;SDS011;40693;43.884;20.340;2022-09-09T14:13:17;7.93;;;3.70;;
54795;SDS011;40693;43.884;20.340;2022-09-09T14:15:43;7.63;;;4.32;;
54795;SDS011;40693;43.884;20.340;2022-09-09T14:18:11;8.73;;;4.70;;
54795;SDS011;40693;43.884;20.340;2022-09-09T14:20:38;9.20;;;4.13;;
54795;SDS011;40693;43.884;20.340;2022-09-09T14:23:04;9.02;;;4.88;;
54795;SDS011;40693;43.884;20.340;2022-09-09T14:25:30;14.32;;;8.15;;
54795;SDS011;40693;43.884;20.340;2022-09-09T14:27:56;15.60;;;10.05;;
54795;SDS011;40693;43.884;20.340;2022-09-09T14:30:22;22.88;;;13.80;;
54795;SDS011;40693;43.884;20.340;2022-09-09T14:32:48;19.08;;;12.38;;
54795;SDS011;40693;43.884;20.340;2022-09-09T14:35:13;12.15;;;7.40;;
54795;SDS011;40693;43.884;20.340;2022-09-09T14:37:39;8.77;;;4.57;;
54795;SDS011;40693;43.884;20.340;2022-09-09T14:40:05;6.45;;;4.03;;
54795;SDS011;40693;43.884;20.340;2022-09-09T14:42:32;8.35;;;5.18;;
54795;SDS011;40693;43.884;20.340;2022-09-09T14:44:58;14.63;;;9.35;;
54795;SDS011;40693;43.884;20.340;2022-09-09T14:47:23;16.55;;;6.63;;
54795;SDS011;40693;43.884;20.340;2022-09-09T14:49:49;11.10;;;6.85;;
54795;SDS011;40693;43.884;20.340;2022-09-09T14:52:15;11.95;;;5.25;;
54795;SDS011;40693;43.884;20.340;2022-09-09T14:54:41;8.52;;;5.25;;
54795;SDS011;40693;43.884;20.340;2022-09-09T14:57:07;9.35;;;5.50;;
54795;SDS011;40693;43.884;20.340;2022-09-09T14:59:32;10.90;;;5.60;;
54795;SDS011;40693;43.884;20.340;2022-09-09T15:01:59;10.93;;;6.07;;
54795;SDS011;40693;43.884;20.340;2022-09-09T15:04:29;7.65;;;4.78;;
54795;SDS011;40693;43.884;20.340;2022-09-09T15:06:55;12.27;;;5.18;;
54795;SDS011;40693;43.884;20.340;2022-09-09T15:09:20;10.75;;;6.35;;
54795;SDS011;40693;43.884;20.340;2022-09-09T15:11:46;9.23;;;5.60;;
54795;SDS011;40693;43.884;20.340;2022-09-09T15:14:12;7.72;;;4.82;;
54795;SDS011;40693;43.884;20.340;2022-09-09T15:16:38;8.50;;;5.30;;
54795;SDS011;40693;43.884;20.340;2022-09-09T15:19:04;7.72;;;5.03;;
54795;SDS011;40693;43.884;20.340;2022-09-09T15:21:31;10.85;;;5.85;;
54795;SDS011;40693;43.884;20.340;2022-09-09T15:23:59;15.10;;;6.32;;
54795;SDS011;40693;43.884;20.340;2022-09-09T15:26:25;9.85;;;5.28;;
54795;SDS011;40693;43.884;20.340;2022-09-09T15:28:52;12.60;;;4.93;;
54795;SDS011;40693;43.884;20.340;2022-09-09T15:33:49;8.65;;;5.05;;
54795;SDS011;40693;43.884;20.340;2022-09-09T15:36:25;11.63;;;8.32;;
54795;SDS011;40693;43.884;20.340;2022-09-09T15:38:53;13.80;;;5.97;;
54795;SDS011;40693;43.884;20.340;2022-09-09T15:41:20;10.40;;;7.18;;
54795;SDS011;40693;43.884;20.340;2022-09-09T15:43:47;12.25;;;6.45;;
54795;SDS011;40693;43.884;20.340;2022-09-09T15:48:50;10.30;;;6.28;;
54795;SDS011;40693;43.884;20.340;2022-09-09T15:51:17;12.80;;;7.18;;
54795;SDS011;40693;43.884;20.340;2022-09-09T15:53:43;13.02;;;7.03;;
54795;SDS011;40693;43.884;20.340;2022-09-09T15:56:10;9.93;;;6.65;;
54795;SDS011;40693;43.884;20.340;2022-09-09T15:58:36;11.82;;;6.53;;
54795;SDS011;40693;43.884;20.340;2022-09-09T16:01:02;10.48;;;6.45;;
54795;SDS011;40693;43.884;20.340;2022-09-09T16:03:29;15.68;;;7.18;;
54795;SDS011;40693;43.884;20.340;2022-09-09T16:06:02;15.20;;;7.63;;
54795;SDS011;40693;43.884;20.340;2022-09-09T16:08:33;11.52;;;5.90;;
54795;SDS011;40693;43.884;20.340;2022-09-09T16:11:12;11.88;;;6.22;;
54795;SDS011;40693;43.884;20.340;2022-09-09T16:13:40;12.18;;;6.63;;
54795;SDS011;40693;43.884;20.340;2022-09-09T16:16:09;12.05;;;6.25;;
54795;SDS011;40693;43.884;20.340;2022-09-09T16:18:38;8.68;;;5.50;;
54795;SDS011;40693;43.884;20.340;2022-09-09T16:21:05;13.98;;;7.38;;
54795;SDS011;40693;43.884;20.340;2022-09-09T16:23:33;12.90;;;5.75;;
54795;SDS011;40693;43.884;20.340;2022-09-09T16:26:01;8.57;;;5.60;;
54795;SDS011;40693;43.884;20.340;2022-09-09T16:28:27;12.48;;;6.88;;
54795;SDS011;40693;43.884;20.340;2022-09-09T16:30:54;12.82;;;6.35;;
54795;SDS011;40693;43.884;20.340;2022-09-09T16:33:20;16.60;;;7.80;;
54795;SDS011;40693;43.884;20.340;2022-09-09T16:35:47;11.55;;;6.18;;
54795;SDS011;40693;43.884;20.340;2022-09-09T16:38:14;10.40;;;6.28;;
54795;SDS011;40693;43.884;20.340;2022-09-09T16:40:40;9.00;;;6.00;;
54795;SDS011;40693;43.884;20.340;2022-09-09T16:43:06;8.50;;;5.65;;
54795;SDS011;40693;43.884;20.340;2022-09-09T16:45:32;9.18;;;5.47;;
54795;SDS011;40693;43.884;20.340;2022-09-09T16:47:59;11.73;;;5.47;;
54795;SDS011;40693;43.884;20.340;2022-09-09T16:50:28;11.40;;;7.85;;
54795;SDS011;40693;43.884;20.340;2022-09-09T16:52:56;10.50;;;6.40;;
54795;SDS011;40693;43.884;20.340;2022-09-09T16:55:21;11.80;;;6.45;;
54795;SDS011;40693;43.884;20.340;2022-09-09T16:57:47;12.45;;;7.28;;
54795;SDS011;40693;43.884;20.340;2022-09-09T17:00:14;10.48;;;7.55;;